Local Weather Ingen bokad jour idag Tuesday 22nd of May
Flygplats METAR TAF
Airport METAR TAF
ESSL - Linköping220720Z VRB02KT CAVOK 18/07 Q1021= 220450Z 2205/2214 VRB02KT CAVOK BECMG 2209/2211 07005G10KT RMK MIL=
ESSP - Norrköping220720Z VRB02KT CAVOK 19/10 Q1021= 220530Z 2206/2215 VRB02KT CAVOK=
ESGJ - Jönköping220720Z 07002KT CAVOK 18/04 Q1021= 220530Z 2206/2215 VRB02KT CAVOK=
ESKN - Skavsta220720Z 11005KT 050V140 CAVOK 18/05 Q1021= 220530Z 2206/2306 12005KT CAVOK=
ESSV - Visby220720Z 12007KT 080V150 CAVOK 21/06 Q1021= 220530Z 2206/2215 12007KT CAVOK=
ESGG - Göteborg220720Z 17003KT 130V220 CAVOK 18/05 Q1020= 220530Z 2206/2306 12004KT CAVOK=
FLEET STATUS
Flygplan Tid till service Tid till flygstopp Flygtid Landningar
Aircraft Time to service Time to stop Total time Landings
SE-FCEN/AN/A4 855.9 h286 st.
SE-IUD-11.7 h-1.7 h11 111.7 h22 058 st.
SE-KIT-10.3 h-0.3 h11 410.3 h21 812 st.
SE-KMH2.6 h12.6 h15 597.4 h58 714 st.
SE-MEB0.9 h10.9 h1 199.1 h3 679 st.
SE-SIMN/AN/A1 192.2 h85 st.
NOTAM
ESSL/LINKOPING/SAAB
- AERODROME CONTROL TOWER (TWR) HOURS OF OPS/SERVICE MON-FRI 0345-2100 SAT 0345-0445 1500-1615 2000-2100 SUN 0345-0445 1415-1530 2000-2100 FROM: 14 MAY 2018 00:00 TO: 03 JUN 2018 23:59 ES/B1070/18 - ATTENTION UNMANNED AIRCRAFT. ADDITION TO REGULATION TSFS 2017 110. THE LIMITATIONS IN REGULATION TSFS 2017 110 CHAPTER 3 PARAGRPH 3 APPLIES EVEN THOUGH THE AIRPORT IS CLOSED AND SAAB AND MALMEN CTR ARE NOT ESTABLISHED. FROM: 27 APR 2018 09:35 TO: 31 MAY 2018 10:00 EST ES/B1306/18
ESCF/LINKOPING/MALMEN
- ATTENTION UNMANNED AIRCRAFT. ADDITION TO REGULATION TSFS 2017 110. THE LIMITATIONS IN REGULATION TSFS 2017 110 CHAPTER 3 PARAGRPH 3 APPLIES EVEN THOUGH THE AIRPORT IS CLOSED AND SAAB AND MALMEN CTR ARE NOT ESTABLISHED. FROM: 27 APR 2018 09:39 TO: 31 MAY 2018 10:00 EST ES/B1307/18
PPR
Ankomst Avgång Flygplan Namn Bränsle
Arrival Departure Aircraft Name Fuel